sensor_id;sensor_type;location;lat;lon;timestamp;temperature;humidity
85830;DHT22;76277;49.212;16.680;2024-03-25T00:00:20;2.46;99.16
85830;DHT22;76277;49.212;16.680;2024-03-25T00:03:05;2.46;99.16
85830;DHT22;76277;49.212;16.680;2024-03-25T00:05:49;2.39;100.08
85830;DHT22;76277;49.212;16.680;2024-03-25T00:08:35;2.39;100.08
85830;DHT22;76277;49.212;16.680;2024-03-25T00:11:19;2.39;100.08
85830;DHT22;76277;49.212;16.680;2024-03-25T00:14:04;2.39;100.08
85830;DHT22;76277;49.212;16.680;2024-03-25T00:16:48;2.39;100.08
85830;DHT22;76277;49.212;16.680;2024-03-25T00:19:33;2.39;100.08
85830;DHT22;76277;49.212;16.680;2024-03-25T00:22:18;2.19;99.97
85830;DHT22;76277;49.212;16.680;2024-03-25T00:25:02;2.19;99.97
85830;DHT22;76277;49.212;16.680;2024-03-25T00:27:47;2.19;99.97
85830;DHT22;76277;49.212;16.680;2024-03-25T00:30:32;2.19;99.97
85830;DHT22;76277;49.212;16.680;2024-03-25T00:33:16;2.19;99.97
85830;DHT22;76277;49.212;16.680;2024-03-25T00:38:46;2.35;99.31
85830;DHT22;76277;49.212;16.680;2024-03-25T00:41:30;2.35;99.31
85830;DHT22;76277;49.212;16.680;2024-03-25T00:44:15;2.35;99.31
85830;DHT22;76277;49.212;16.680;2024-03-25T00:46:59;2.35;99.31
85830;DHT22;76277;49.212;16.680;2024-03-25T00:49:44;2.35;99.31
85830;DHT22;76277;49.212;16.680;2024-03-25T00:52:29;2.06;99.80
85830;DHT22;76277;49.212;16.680;2024-03-25T00:55:13;2.06;99.80
85830;DHT22;76277;49.212;16.680;2024-03-25T00:57:58;2.06;99.80
85830;DHT22;76277;49.212;16.680;2024-03-25T01:00:44;2.06;99.80
85830;DHT22;76277;49.212;16.680;2024-03-25T01:03:27;2.06;99.80
85830;DHT22;76277;49.212;16.680;2024-03-25T01:06:12;2.46;99.23
85830;DHT22;76277;49.212;16.680;2024-03-25T01:08:57;2.46;99.23
85830;DHT22;76277;49.212;16.680;2024-03-25T01:11:42;2.46;99.23
85830;DHT22;76277;49.212;16.680;2024-03-25T01:14:26;2.46;99.23
85830;DHT22;76277;49.212;16.680;2024-03-25T01:17:11;2.46;99.23
85830;DHT22;76277;49.212;16.680;2024-03-25T01:19:55;2.46;99.23
85830;DHT22;76277;49.212;16.680;2024-03-25T01:22:40;2.43;98.40
85830;DHT22;76277;49.212;16.680;2024-03-25T01:25:25;2.43;98.40
85830;DHT22;76277;49.212;16.680;2024-03-25T01:28:10;2.43;98.40
85830;DHT22;76277;49.212;16.680;2024-03-25T01:30:54;2.43;98.40
85830;DHT22;76277;49.212;16.680;2024-03-25T01:33:39;2.43;98.40
85830;DHT22;76277;49.212;16.680;2024-03-25T01:36:24;2.55;97.63
85830;DHT22;76277;49.212;16.680;2024-03-25T01:39:08;2.55;97.63
85830;DHT22;76277;49.212;16.680;2024-03-25T01:41:53;2.55;97.63
85830;DHT22;76277;49.212;16.680;2024-03-25T01:44:37;2.55;97.63
85830;DHT22;76277;49.212;16.680;2024-03-25T01:47:22;2.55;97.63
85830;DHT22;76277;49.212;16.680;2024-03-25T01:50:07;2.55;97.63
85830;DHT22;76277;49.212;16.680;2024-03-25T01:52:51;2.39;98.14
85830;DHT22;76277;49.212;16.680;2024-03-25T01:55:36;2.39;98.14
85830;DHT22;76277;49.212;16.680;2024-03-25T01:58:21;2.39;98.14
85830;DHT22;76277;49.212;16.680;2024-03-25T02:01:05;2.39;98.14
85830;DHT22;76277;49.212;16.680;2024-03-25T02:03:50;2.39;98.14
85830;DHT22;76277;49.212;16.680;2024-03-25T02:06:35;2.70;98.42
85830;DHT22;76277;49.212;16.680;2024-03-25T02:09:19;2.70;98.42
85830;DHT22;76277;49.212;16.680;2024-03-25T02:12:04;2.70;98.42
85830;DHT22;76277;49.212;16.680;2024-03-25T02:14:49;2.70;98.42
85830;DHT22;76277;49.212;16.680;2024-03-25T02:17:34;2.70;98.42
85830;DHT22;76277;49.212;16.680;2024-03-25T02:20:18;2.70;98.42
85830;DHT22;76277;49.212;16.680;2024-03-25T02:23:03;2.71;96.90
85830;DHT22;76277;49.212;16.680;2024-03-25T02:25:49;2.71;96.90
85830;DHT22;76277;49.212;16.680;2024-03-25T02:28:32;2.71;96.90
85830;DHT22;76277;49.212;16.680;2024-03-25T02:31:17;2.71;96.90
85830;DHT22;76277;49.212;16.680;2024-03-25T02:34:01;2.71;96.90
85830;DHT22;76277;49.212;16.680;2024-03-25T02:36:46;2.79;96.84
85830;DHT22;76277;49.212;16.680;2024-03-25T02:39:31;2.79;96.84
85830;DHT22;76277;49.212;16.680;2024-03-25T02:42:15;2.79;96.84
85830;DHT22;76277;49.212;16.680;2024-03-25T02:45:00;2.79;96.84
85830;DHT22;76277;49.212;16.680;2024-03-25T02:47:45;2.79;96.84
85830;DHT22;76277;49.212;16.680;2024-03-25T02:50:29;2.79;96.84
85830;DHT22;76277;49.212;16.680;2024-03-25T02:53:14;2.67;97.03
85830;DHT22;76277;49.212;16.680;2024-03-25T02:55:59;2.67;97.03
85830;DHT22;76277;49.212;16.680;2024-03-25T02:58:43;2.67;97.03
85830;DHT22;76277;49.212;16.680;2024-03-25T03:01:28;2.67;97.03
85830;DHT22;76277;49.212;16.680;2024-03-25T03:04:13;2.67;97.03
85830;DHT22;76277;49.212;16.680;2024-03-25T03:06:57;2.64;96.83
85830;DHT22;76277;49.212;16.680;2024-03-25T03:09:42;2.64;96.83
85830;DHT22;76277;49.212;16.680;2024-03-25T03:12:27;2.64;96.83
85830;DHT22;76277;49.212;16.680;2024-03-25T03:15:11;2.64;96.83
85830;DHT22;76277;49.212;16.680;2024-03-25T03:17:56;2.64;96.83
85830;DHT22;76277;49.212;16.680;2024-03-25T03:20:41;2.64;96.83
85830;DHT22;76277;49.212;16.680;2024-03-25T03:23:25;2.93;95.82
85830;DHT22;76277;49.212;16.680;2024-03-25T03:26:10;2.93;95.82
85830;DHT22;76277;49.212;16.680;2024-03-25T03:28:55;2.93;95.82
85830;DHT22;76277;49.212;16.680;2024-03-25T03:31:40;2.93;95.82
85830;DHT22;76277;49.212;16.680;2024-03-25T03:34:24;2.93;95.82
85830;DHT22;76277;49.212;16.680;2024-03-25T03:37:09;2.83;96.38
85830;DHT22;76277;49.212;16.680;2024-03-25T03:39:53;2.83;96.38
85830;DHT22;76277;49.212;16.680;2024-03-25T03:48:08;2.83;96.38
85830;DHT22;76277;49.212;16.680;2024-03-25T03:50:52;2.83;96.38
85830;DHT22;76277;49.212;16.680;2024-03-25T03:53:37;2.82;96.18
85830;DHT22;76277;49.212;16.680;2024-03-25T03:56:21;2.82;96.18
85830;DHT22;76277;49.212;16.680;2024-03-25T04:01:51;2.82;96.18
85830;DHT22;76277;49.212;16.680;2024-03-25T04:04:35;2.82;96.18
85830;DHT22;76277;49.212;16.680;2024-03-25T04:07:20;2.90;95.80
85830;DHT22;76277;49.212;16.680;2024-03-25T04:10:05;2.90;95.80
85830;DHT22;76277;49.212;16.680;2024-03-25T04:12:49;2.90;95.80
85830;DHT22;76277;49.212;16.680;2024-03-25T04:15:34;2.90;95.80
85830;DHT22;76277;49.212;16.680;2024-03-25T04:18:19;2.90;95.80
85830;DHT22;76277;49.212;16.680;2024-03-25T04:21:03;2.90;95.80
85830;DHT22;76277;49.212;16.680;2024-03-25T04:23:48;2.70;96.66
85830;DHT22;76277;49.212;16.680;2024-03-25T04:26:33;2.70;96.66
85830;DHT22;76277;49.212;16.680;2024-03-25T04:29:17;2.70;96.66
85830;DHT22;76277;49.212;16.680;2024-03-25T04:32:02;2.70;96.66
85830;DHT22;76277;49.212;16.680;2024-03-25T04:34:47;2.70;96.66
85830;DHT22;76277;49.212;16.680;2024-03-25T04:37:31;2.93;95.75
85830;DHT22;76277;49.212;16.680;2024-03-25T04:40:16;2.93;95.75
85830;DHT22;76277;49.212;16.680;2024-03-25T04:43:01;2.93;95.75
85830;DHT22;76277;49.212;16.680;2024-03-25T04:45:45;2.93;95.75
85830;DHT22;76277;49.212;16.680;2024-03-25T04:48:30;2.93;95.75
85830;DHT22;76277;49.212;16.680;2024-03-25T04:51:14;2.93;95.75
85830;DHT22;76277;49.212;16.680;2024-03-25T04:53:59;2.77;95.31
85830;DHT22;76277;49.212;16.680;2024-03-25T04:56:44;2.77;95.31
85830;DHT22;76277;49.212;16.680;2024-03-25T04:59:29;2.77;95.31
85830;DHT22;76277;49.212;16.680;2024-03-25T05:02:13;2.77;95.31
85830;DHT22;76277;49.212;16.680;2024-03-25T05:04:58;2.77;95.31
85830;DHT22;76277;49.212;16.680;2024-03-25T05:07:43;2.87;95.29
85830;DHT22;76277;49.212;16.680;2024-03-25T05:10:27;2.87;95.29
85830;DHT22;76277;49.212;16.680;2024-03-25T05:13:12;2.87;95.29
85830;DHT22;76277;49.212;16.680;2024-03-25T05:15:56;2.87;95.29
85830;DHT22;76277;49.212;16.680;2024-03-25T05:18:41;2.87;95.29
85830;DHT22;76277;49.212;16.680;2024-03-25T05:21:26;2.87;95.29
85830;DHT22;76277;49.212;16.680;2024-03-25T05:24:11;2.76;95.69
85830;DHT22;76277;49.212;16.680;2024-03-25T05:26:55;2.76;95.69
85830;DHT22;76277;49.212;16.680;2024-03-25T05:29:40;2.76;95.69
85830;DHT22;76277;49.212;16.680;2024-03-25T05:32:25;2.76;95.69
85830;DHT22;76277;49.212;16.680;2024-03-25T05:37:54;2.86;95.47
85830;DHT22;76277;49.212;16.680;2024-03-25T05:40:38;2.86;95.47
85830;DHT22;76277;49.212;16.680;2024-03-25T05:43:23;2.86;95.47
85830;DHT22;76277;49.212;16.680;2024-03-25T05:46:08;2.86;95.47
85830;DHT22;76277;49.212;16.680;2024-03-25T05:48:52;2.86;95.47
85830;DHT22;76277;49.212;16.680;2024-03-25T05:51:37;2.86;95.47
85830;DHT22;76277;49.212;16.680;2024-03-25T05:54:22;2.72;95.25
85830;DHT22;76277;49.212;16.680;2024-03-25T05:57:06;2.72;95.25
85830;DHT22;76277;49.212;16.680;2024-03-25T05:59:51;2.72;95.25
85830;DHT22;76277;49.212;16.680;2024-03-25T06:02:36;2.72;95.25
85830;DHT22;76277;49.212;16.680;2024-03-25T06:05:21;2.72;95.25
85830;DHT22;76277;49.212;16.680;2024-03-25T06:08:06;3.36;94.16
85830;DHT22;76277;49.212;16.680;2024-03-25T06:10:50;3.36;94.16
85830;DHT22;76277;49.212;16.680;2024-03-25T06:13:35;3.36;94.16
85830;DHT22;76277;49.212;16.680;2024-03-25T06:16:19;3.36;94.16
85830;DHT22;76277;49.212;16.680;2024-03-25T06:19:04;3.36;94.16
85830;DHT22;76277;49.212;16.680;2024-03-25T06:21:48;3.36;94.16
85830;DHT22;76277;49.212;16.680;2024-03-25T06:24:34;3.78;92.50
85830;DHT22;76277;49.212;16.680;2024-03-25T06:27:18;3.78;92.50
85830;DHT22;76277;49.212;16.680;2024-03-25T06:30:03;3.78;92.50
85830;DHT22;76277;49.212;16.680;2024-03-25T06:32:47;3.78;92.50
85830;DHT22;76277;49.212;16.680;2024-03-25T06:35:32;3.78;92.50
85830;DHT22;76277;49.212;16.680;2024-03-25T06:38:17;4.41;90.96
85830;DHT22;76277;49.212;16.680;2024-03-25T06:41:01;4.41;90.96
85830;DHT22;76277;49.212;16.680;2024-03-25T06:43:46;4.41;90.96
85830;DHT22;76277;49.212;16.680;2024-03-25T06:46:30;4.41;90.96
85830;DHT22;76277;49.212;16.680;2024-03-25T06:49:15;4.41;90.96
85830;DHT22;76277;49.212;16.680;2024-03-25T06:52:00;4.41;90.96
85830;DHT22;76277;49.212;16.680;2024-03-25T06:54:45;4.64;90.96
85830;DHT22;76277;49.212;16.680;2024-03-25T06:57:29;4.64;90.96
85830;DHT22;76277;49.212;16.680;2024-03-25T07:00:14;4.64;90.96
85830;DHT22;76277;49.212;16.680;2024-03-25T07:02:59;4.64;90.96
85830;DHT22;76277;49.212;16.680;2024-03-25T07:05:44;4.64;90.96
85830;DHT22;76277;49.212;16.680;2024-03-25T07:08:28;5.39;87.07
85830;DHT22;76277;49.212;16.680;2024-03-25T07:11:12;5.39;87.07
85830;DHT22;76277;49.212;16.680;2024-03-25T07:13:57;5.39;87.07
85830;DHT22;76277;49.212;16.680;2024-03-25T07:16:42;5.39;87.07
85830;DHT22;76277;49.212;16.680;2024-03-25T07:19:27;5.39;87.07
85830;DHT22;76277;49.212;16.680;2024-03-25T07:22:11;5.39;87.07
85830;DHT22;76277;49.212;16.680;2024-03-25T07:24:56;5.98;82.47
85830;DHT22;76277;49.212;16.680;2024-03-25T07:27:40;5.98;82.47
85830;DHT22;76277;49.212;16.680;2024-03-25T07:30:25;5.98;82.47
85830;DHT22;76277;49.212;16.680;2024-03-25T07:33:10;5.98;82.47
85830;DHT22;76277;49.212;16.680;2024-03-25T07:35:54;5.98;82.47
85830;DHT22;76277;49.212;16.680;2024-03-25T07:38:39;5.75;82.80
85830;DHT22;76277;49.212;16.680;2024-03-25T07:41:24;5.75;82.80
85830;DHT22;76277;49.212;16.680;2024-03-25T07:44:09;5.75;82.80
85830;DHT22;76277;49.212;16.680;2024-03-25T07:46:53;5.75;82.80
85830;DHT22;76277;49.212;16.680;2024-03-25T07:49:38;5.75;82.80
85830;DHT22;76277;49.212;16.680;2024-03-25T07:52:23;5.75;82.80
85830;DHT22;76277;49.212;16.680;2024-03-25T07:57:52;6.74;78.03
85830;DHT22;76277;49.212;16.680;2024-03-25T08:00:36;6.74;78.03
85830;DHT22;76277;49.212;16.680;2024-03-25T08:03:21;6.74;78.03
85830;DHT22;76277;49.212;16.680;2024-03-25T08:06:06;6.74;78.03
85830;DHT22;76277;49.212;16.680;2024-03-25T08:08:51;6.62;78.88
85830;DHT22;76277;49.212;16.680;2024-03-25T08:11:35;6.62;78.88
85830;DHT22;76277;49.212;16.680;2024-03-25T08:14:22;6.62;78.88
85830;DHT22;76277;49.212;16.680;2024-03-25T08:17:04;6.62;78.88
85830;DHT22;76277;49.212;16.680;2024-03-25T08:19:49;6.62;78.88
85830;DHT22;76277;49.212;16.680;2024-03-25T08:22:34;6.62;78.88
85830;DHT22;76277;49.212;16.680;2024-03-25T08:25:18;7.23;76.59
85830;DHT22;76277;49.212;16.680;2024-03-25T08:28:03;7.23;76.59
85830;DHT22;76277;49.212;16.680;2024-03-25T08:30:48;7.23;76.59
85830;DHT22;76277;49.212;16.680;2024-03-25T08:33:32;7.23;76.59
85830;DHT22;76277;49.212;16.680;2024-03-25T08:36:17;7.23;76.59
85830;DHT22;76277;49.212;16.680;2024-03-25T08:39:02;6.62;76.10
85830;DHT22;76277;49.212;16.680;2024-03-25T08:41:46;6.62;76.10
85830;DHT22;76277;49.212;16.680;2024-03-25T08:44:31;6.62;76.10
85830;DHT22;76277;49.212;16.680;2024-03-25T08:47:16;6.62;76.10
85830;DHT22;76277;49.212;16.680;2024-03-25T08:50:00;6.62;76.10
85830;DHT22;76277;49.212;16.680;2024-03-25T08:52:45;7.57;73.87
85830;DHT22;76277;49.212;16.680;2024-03-25T08:55:30;7.57;73.87
85830;DHT22;76277;49.212;16.680;2024-03-25T08:58:14;7.57;73.87
85830;DHT22;76277;49.212;16.680;2024-03-25T09:00:59;7.57;73.87
85830;DHT22;76277;49.212;16.680;2024-03-25T09:03:44;7.57;73.87
85830;DHT22;76277;49.212;16.680;2024-03-25T09:06:28;7.57;73.87
85830;DHT22;76277;49.212;16.680;2024-03-25T09:09:13;7.03;75.18
85830;DHT22;76277;49.212;16.680;2024-03-25T09:11:58;7.03;75.18
85830;DHT22;76277;49.212;16.680;2024-03-25T09:14:43;7.03;75.18
85830;DHT22;76277;49.212;16.680;2024-03-25T09:17:27;7.03;75.18
85830;DHT22;76277;49.212;16.680;2024-03-25T09:20:12;7.03;75.18
85830;DHT22;76277;49.212;16.680;2024-03-25T09:22:56;7.09;76.02
85830;DHT22;76277;49.212;16.680;2024-03-25T09:28:26;7.09;76.02
85830;DHT22;76277;49.212;16.680;2024-03-25T09:31:11;7.09;76.02
85830;DHT22;76277;49.212;16.680;2024-03-25T09:33:55;7.09;76.02
85830;DHT22;76277;49.212;16.680;2024-03-25T09:36:40;7.09;76.02
85830;DHT22;76277;49.212;16.680;2024-03-25T09:39:24;7.37;71.14
85830;DHT22;76277;49.212;16.680;2024-03-25T09:42:10;7.37;71.14
85830;DHT22;76277;49.212;16.680;2024-03-25T09:44:54;7.37;71.14
85830;DHT22;76277;49.212;16.680;2024-03-25T09:47:38;7.37;71.14
85830;DHT22;76277;49.212;16.680;2024-03-25T09:50:23;7.37;71.14
85830;DHT22;76277;49.212;16.680;2024-03-25T09:53:08;8.51;66.70
85830;DHT22;76277;49.212;16.680;2024-03-25T09:55:52;8.51;66.70
85830;DHT22;76277;49.212;16.680;2024-03-25T09:58:37;8.51;66.70
85830;DHT22;76277;49.212;16.680;2024-03-25T10:01:22;8.51;66.70
85830;DHT22;76277;49.212;16.680;2024-03-25T10:04:06;8.51;66.70
85830;DHT22;76277;49.212;16.680;2024-03-25T10:06:51;8.51;66.70
85830;DHT22;76277;49.212;16.680;2024-03-25T10:09:36;8.82;65.23
85830;DHT22;76277;49.212;16.680;2024-03-25T10:12:20;8.82;65.23
85830;DHT22;76277;49.212;16.680;2024-03-25T10:15:05;8.82;65.23
85830;DHT22;76277;49.212;16.680;2024-03-25T10:17:50;8.82;65.23
85830;DHT22;76277;49.212;16.680;2024-03-25T10:20:34;8.82;65.23
85830;DHT22;76277;49.212;16.680;2024-03-25T10:23:20;8.44;65.68
85830;DHT22;76277;49.212;16.680;2024-03-25T10:26:04;8.44;65.68
85830;DHT22;76277;49.212;16.680;2024-03-25T10:28:52;8.44;65.68
85830;DHT22;76277;49.212;16.680;2024-03-25T10:31:33;8.44;65.68
85830;DHT22;76277;49.212;16.680;2024-03-25T10:34:18;8.44;65.68
85830;DHT22;76277;49.212;16.680;2024-03-25T10:37:02;8.44;65.68
85830;DHT22;76277;49.212;16.680;2024-03-25T10:39:48;9.72;62.25
85830;DHT22;76277;49.212;16.680;2024-03-25T10:42:32;9.72;62.25
85830;DHT22;76277;49.212;16.680;2024-03-25T10:45:16;9.72;62.25
85830;DHT22;76277;49.212;16.680;2024-03-25T10:48:02;9.72;62.25
85830;DHT22;76277;49.212;16.680;2024-03-25T10:50:46;9.72;62.25
85830;DHT22;76277;49.212;16.680;2024-03-25T10:53:30;10.12;60.43
85830;DHT22;76277;49.212;16.680;2024-03-25T10:56:15;10.12;60.43
85830;DHT22;76277;49.212;16.680;2024-03-25T10:59:00;10.12;60.43
85830;DHT22;76277;49.212;16.680;2024-03-25T11:01:44;10.12;60.43
85830;DHT22;76277;49.212;16.680;2024-03-25T11:04:29;10.12;60.43
85830;DHT22;76277;49.212;16.680;2024-03-25T11:07:14;10.12;60.43
85830;DHT22;76277;49.212;16.680;2024-03-25T11:10:06;9.37;60.90
85830;DHT22;76277;49.212;16.680;2024-03-25T11:12:43;9.37;60.90
85830;DHT22;76277;49.212;16.680;2024-03-25T11:15:35;9.37;60.90
85830;DHT22;76277;49.212;16.680;2024-03-25T11:18:12;9.37;60.90
85830;DHT22;76277;49.212;16.680;2024-03-25T11:21:00;9.37;60.90
85830;DHT22;76277;49.212;16.680;2024-03-25T11:23:41;9.89;58.95
85830;DHT22;76277;49.212;16.680;2024-03-25T11:26:26;9.89;58.95
85830;DHT22;76277;49.212;16.680;2024-03-25T11:29:11;9.89;58.95
85830;DHT22;76277;49.212;16.680;2024-03-25T11:31:56;9.89;58.95
85830;DHT22;76277;49.212;16.680;2024-03-25T11:34:49;9.89;58.95
85830;DHT22;76277;49.212;16.680;2024-03-25T11:37:25;9.89;58.95
85830;DHT22;76277;49.212;16.680;2024-03-25T11:40:10;10.87;60.43
85830;DHT22;76277;49.212;16.680;2024-03-25T11:42:54;10.87;60.43
85830;DHT22;76277;49.212;16.680;2024-03-25T11:45:39;10.87;60.43
85830;DHT22;76277;49.212;16.680;2024-03-25T11:48:23;10.87;60.43
85830;DHT22;76277;49.212;16.680;2024-03-25T11:51:11;10.87;60.43
85830;DHT22;76277;49.212;16.680;2024-03-25T11:53:53;10.23;63.60
85830;DHT22;76277;49.212;16.680;2024-03-25T11:56:37;10.23;63.60
85830;DHT22;76277;49.212;16.680;2024-03-25T11:59:22;10.23;63.60
85830;DHT22;76277;49.212;16.680;2024-03-25T12:02:07;10.23;63.60
85830;DHT22;76277;49.212;16.680;2024-03-25T12:04:52;10.23;63.60
85830;DHT22;76277;49.212;16.680;2024-03-25T12:07:36;10.23;63.60
85830;DHT22;76277;49.212;16.680;2024-03-25T12:10:21;7.61;71.30
85830;DHT22;76277;49.212;16.680;2024-03-25T12:13:06;7.61;71.30
85830;DHT22;76277;49.212;16.680;2024-03-25T12:15:51;7.61;71.30
85830;DHT22;76277;49.212;16.680;2024-03-25T12:18:35;7.61;71.30
85830;DHT22;76277;49.212;16.680;2024-03-25T12:21:20;7.61;71.30
85830;DHT22;76277;49.212;16.680;2024-03-25T12:24:04;10.25;71.30
85830;DHT22;76277;49.212;16.680;2024-03-25T12:26:49;10.25;71.30
85830;DHT22;76277;49.212;16.680;2024-03-25T12:29:34;10.25;71.30
85830;DHT22;76277;49.212;16.680;2024-03-25T12:32:18;10.25;71.30
85830;DHT22;76277;49.212;16.680;2024-03-25T12:35:03;10.25;71.30
85830;DHT22;76277;49.212;16.680;2024-03-25T12:37:47;10.25;71.30
85830;DHT22;76277;49.212;16.680;2024-03-25T12:40:32;23.22;40.09
85830;DHT22;76277;49.212;16.680;2024-03-25T12:43:17;23.22;40.09
85830;DHT22;76277;49.212;16.680;2024-03-25T12:46:01;23.22;40.09
85830;DHT22;76277;49.212;16.680;2024-03-25T12:48:46;23.22;40.09
85830;DHT22;76277;49.212;16.680;2024-03-25T12:51:31;23.22;40.09
85830;DHT22;76277;49.212;16.680;2024-03-25T12:54:15;24.43;32.70
85830;DHT22;76277;49.212;16.680;2024-03-25T12:57:01;24.43;32.70
85830;DHT22;76277;49.212;16.680;2024-03-25T12:59:45;24.43;32.70
85830;DHT22;76277;49.212;16.680;2024-03-25T13:02:29;24.43;32.70
85830;DHT22;76277;49.212;16.680;2024-03-25T13:05:14;24.43;32.70
85830;DHT22;76277;49.212;16.680;2024-03-25T13:07:59;24.43;32.70
85830;DHT22;76277;49.212;16.680;2024-03-25T13:10:43;26.20;29.73
85830;DHT22;76277;49.212;16.680;2024-03-25T13:13:28;26.20;29.73
85830;DHT22;76277;49.212;16.680;2024-03-25T13:16:13;26.20;29.73
85830;DHT22;76277;49.212;16.680;2024-03-25T13:18:57;26.20;29.73
85830;DHT22;76277;49.212;16.680;2024-03-25T13:21:42;26.20;29.73
85830;DHT22;76277;49.212;16.680;2024-03-25T13:24:27;13.61;48.13
85830;DHT22;76277;49.212;16.680;2024-03-25T13:27:11;13.61;48.13
85830;DHT22;76277;49.212;16.680;2024-03-25T13:29:56;13.61;48.13
85830;DHT22;76277;49.212;16.680;2024-03-25T13:32:41;13.61;48.13
85830;DHT22;76277;49.212;16.680;2024-03-25T13:35:25;13.61;48.13
85830;DHT22;76277;49.212;16.680;2024-03-25T13:38:10;13.61;48.13
85830;DHT22;76277;49.212;16.680;2024-03-25T13:40:55;7.00;77.76
85830;DHT22;76277;49.212;16.680;2024-03-25T13:43:42;7.00;77.76
85830;DHT22;76277;49.212;16.680;2024-03-25T13:46:24;7.00;77.76
85830;DHT22;76277;49.212;16.680;2024-03-25T13:49:09;7.00;77.76
85830;DHT22;76277;49.212;16.680;2024-03-25T13:51:56;7.00;77.76
85830;DHT22;76277;49.212;16.680;2024-03-25T13:54:38;5.45;88.33
85830;DHT22;76277;49.212;16.680;2024-03-25T13:57:23;5.45;88.33
85830;DHT22;76277;49.212;16.680;2024-03-25T14:02:52;5.45;88.33
85830;DHT22;76277;49.212;16.680;2024-03-25T14:05:37;5.45;88.33
85830;DHT22;76277;49.212;16.680;2024-03-25T14:08:21;5.45;88.33
85830;DHT22;76277;49.212;16.680;2024-03-25T14:11:06;6.98;83.38
85830;DHT22;76277;49.212;16.680;2024-03-25T14:13:51;6.98;83.38
85830;DHT22;76277;49.212;16.680;2024-03-25T14:16:35;6.98;83.38
85830;DHT22;76277;49.212;16.680;2024-03-25T14:19:20;6.98;83.38
85830;DHT22;76277;49.212;16.680;2024-03-25T14:22:05;6.98;83.38
85830;DHT22;76277;49.212;16.680;2024-03-25T14:24:50;8.41;68.28
85830;DHT22;76277;49.212;16.680;2024-03-25T14:27:34;8.41;68.28
85830;DHT22;76277;49.212;16.680;2024-03-25T14:30:19;8.41;68.28
85830;DHT22;76277;49.212;16.680;2024-03-25T14:33:03;8.41;68.28
85830;DHT22;76277;49.212;16.680;2024-03-25T14:35:48;8.41;68.28
85830;DHT22;76277;49.212;16.680;2024-03-25T14:38:33;8.41;68.28
85830;DHT22;76277;49.212;16.680;2024-03-25T14:41:18;7.11;67.75
85830;DHT22;76277;49.212;16.680;2024-03-25T14:44:02;7.11;67.75
85830;DHT22;76277;49.212;16.680;2024-03-25T14:46:47;7.11;67.75
85830;DHT22;76277;49.212;16.680;2024-03-25T14:49:31;7.11;67.75
85830;DHT22;76277;49.212;16.680;2024-03-25T14:52:16;7.11;67.75
85830;DHT22;76277;49.212;16.680;2024-03-25T14:55:01;14.94;51.29
85830;DHT22;76277;49.212;16.680;2024-03-25T14:57:45;14.94;51.29
85830;DHT22;76277;49.212;16.680;2024-03-25T15:00:30;14.94;51.29
85830;DHT22;76277;49.212;16.680;2024-03-25T15:03:15;14.94;51.29
85830;DHT22;76277;49.212;16.680;2024-03-25T15:05:59;14.94;51.29
85830;DHT22;76277;49.212;16.680;2024-03-25T15:08:44;14.94;51.29
85830;DHT22;76277;49.212;16.680;2024-03-25T15:11:29;18.28;44.90
85830;DHT22;76277;49.212;16.680;2024-03-25T15:14:13;18.28;44.90
85830;DHT22;76277;49.212;16.680;2024-03-25T15:16:58;18.28;44.90
85830;DHT22;76277;49.212;16.680;2024-03-25T15:19:43;18.28;44.90
85830;DHT22;76277;49.212;16.680;2024-03-25T15:22:27;18.28;44.90
85830;DHT22;76277;49.212;16.680;2024-03-25T15:25:12;15.33;46.77
85830;DHT22;76277;49.212;16.680;2024-03-25T15:27:56;15.33;46.77
85830;DHT22;76277;49.212;16.680;2024-03-25T15:30:41;15.33;46.77
85830;DHT22;76277;49.212;16.680;2024-03-25T15:33:26;15.33;46.77
85830;DHT22;76277;49.212;16.680;2024-03-25T15:36:11;15.33;46.77
85830;DHT22;76277;49.212;16.680;2024-03-25T15:38:55;15.33;46.77
85830;DHT22;76277;49.212;16.680;2024-03-25T15:41:40;16.79;43.33
85830;DHT22;76277;49.212;16.680;2024-03-25T15:44:25;16.79;43.33
85830;DHT22;76277;49.212;16.680;2024-03-25T15:47:09;16.79;43.33
85830;DHT22;76277;49.212;16.680;2024-03-25T15:49:54;16.79;43.33
85830;DHT22;76277;49.212;16.680;2024-03-25T15:52:39;16.79;43.33
85830;DHT22;76277;49.212;16.680;2024-03-25T15:55:23;18.52;41.27
85830;DHT22;76277;49.212;16.680;2024-03-25T15:58:08;18.52;41.27
85830;DHT22;76277;49.212;16.680;2024-03-25T16:00:53;18.52;41.27
85830;DHT22;76277;49.212;16.680;2024-03-25T16:03:37;18.52;41.27
85830;DHT22;76277;49.212;16.680;2024-03-25T16:06:22;18.52;41.27
85830;DHT22;76277;49.212;16.680;2024-03-25T16:09:07;18.52;41.27
85830;DHT22;76277;49.212;16.680;2024-03-25T16:11:51;8.92;59.85
85830;DHT22;76277;49.212;16.680;2024-03-25T16:14:36;8.92;59.85
85830;DHT22;76277;49.212;16.680;2024-03-25T16:17:20;8.92;59.85
85830;DHT22;76277;49.212;16.680;2024-03-25T16:20:06;8.92;59.85
85830;DHT22;76277;49.212;16.680;2024-03-25T16:22:50;8.92;59.85
85830;DHT22;76277;49.212;16.680;2024-03-25T16:25:34;9.51;58.18
85830;DHT22;76277;49.212;16.680;2024-03-25T16:28:19;9.51;58.18
85830;DHT22;76277;49.212;16.680;2024-03-25T16:31:04;9.51;58.18
85830;DHT22;76277;49.212;16.680;2024-03-25T16:33:48;9.51;58.18
85830;DHT22;76277;49.212;16.680;2024-03-25T16:36:33;9.51;58.18
85830;DHT22;76277;49.212;16.680;2024-03-25T16:39:18;9.51;58.18
85830;DHT22;76277;49.212;16.680;2024-03-25T16:42:03;10.08;57.94
85830;DHT22;76277;49.212;16.680;2024-03-25T16:44:47;10.08;57.94
85830;DHT22;76277;49.212;16.680;2024-03-25T16:47:32;10.08;57.94
85830;DHT22;76277;49.212;16.680;2024-03-25T16:50:16;10.08;57.94
85830;DHT22;76277;49.212;16.680;2024-03-25T16:53:02;10.08;57.94
85830;DHT22;76277;49.212;16.680;2024-03-25T16:55:48;8.70;61.39
85830;DHT22;76277;49.212;16.680;2024-03-25T16:58:31;8.70;61.39
85830;DHT22;76277;49.212;16.680;2024-03-25T17:01:15;8.70;61.39
85830;DHT22;76277;49.212;16.680;2024-03-25T17:04:00;8.70;61.39
85830;DHT22;76277;49.212;16.680;2024-03-25T17:06:44;8.70;61.39
85830;DHT22;76277;49.212;16.680;2024-03-25T17:09:29;8.70;61.39
85830;DHT22;76277;49.212;16.680;2024-03-25T17:12:14;7.99;64.10
85830;DHT22;76277;49.212;16.680;2024-03-25T17:14:59;7.99;64.10
85830;DHT22;76277;49.212;16.680;2024-03-25T17:17:43;7.99;64.10
85830;DHT22;76277;49.212;16.680;2024-03-25T17:20:28;7.99;64.10
85830;DHT22;76277;49.212;16.680;2024-03-25T17:23:12;7.99;64.10
85830;DHT22;76277;49.212;16.680;2024-03-25T17:25:57;6.54;69.08
85830;DHT22;76277;49.212;16.680;2024-03-25T17:28:42;6.54;69.08
85830;DHT22;76277;49.212;16.680;2024-03-25T17:31:27;6.54;69.08
85830;DHT22;76277;49.212;16.680;2024-03-25T17:34:11;6.54;69.08
85830;DHT22;76277;49.212;16.680;2024-03-25T17:36:56;6.54;69.08